sensor_id;sensor_type;location;lat;lon;timestamp;temperature;humidity
65036;DHT22;51603;49.300;8.880;2023-04-24T00:01:39;11.10;99.90
65036;DHT22;51603;49.300;8.880;2023-04-24T00:04:05;11.10;99.90
65036;DHT22;51603;49.300;8.880;2023-04-24T00:06:32;11.20;99.90
65036;DHT22;51603;49.300;8.880;2023-04-24T00:09:01;11.20;99.90
65036;DHT22;51603;49.300;8.880;2023-04-24T00:11:28;11.20;99.90
65036;DHT22;51603;49.300;8.880;2023-04-24T00:13:53;11.20;99.90
65036;DHT22;51603;49.300;8.880;2023-04-24T00:16:19;11.20;99.90
65036;DHT22;51603;49.300;8.880;2023-04-24T00:18:44;11.20;99.90
65036;DHT22;51603;49.300;8.880;2023-04-24T00:21:10;11.20;99.90
65036;DHT22;51603;49.300;8.880;2023-04-24T00:23:36;11.30;99.90
65036;DHT22;51603;49.300;8.880;2023-04-24T00:26:02;11.30;99.90
65036;DHT22;51603;49.300;8.880;2023-04-24T00:28:27;11.20;99.90
65036;DHT22;51603;49.300;8.880;2023-04-24T00:30:53;11.20;99.90
65036;DHT22;51603;49.300;8.880;2023-04-24T00:33:19;11.20;99.90
65036;DHT22;51603;49.300;8.880;2023-04-24T00:35:45;11.20;99.90
65036;DHT22;51603;49.300;8.880;2023-04-24T00:38:10;11.30;99.90
65036;DHT22;51603;49.300;8.880;2023-04-24T00:40:36;11.30;99.90
65036;DHT22;51603;49.300;8.880;2023-04-24T00:43:02;11.30;99.90
65036;DHT22;51603;49.300;8.880;2023-04-24T00:45:27;11.30;99.90
65036;DHT22;51603;49.300;8.880;2023-04-24T00:47:53;11.30;99.90
65036;DHT22;51603;49.300;8.880;2023-04-24T00:50:20;11.40;99.90
65036;DHT22;51603;49.300;8.880;2023-04-24T00:52:46;11.40;99.90
65036;DHT22;51603;49.300;8.880;2023-04-24T00:55:12;11.50;99.90
65036;DHT22;51603;49.300;8.880;2023-04-24T00:57:38;11.50;99.90
65036;DHT22;51603;49.300;8.880;2023-04-24T01:00:05;11.50;99.90
65036;DHT22;51603;49.300;8.880;2023-04-24T01:02:31;11.50;99.90
65036;DHT22;51603;49.300;8.880;2023-04-24T01:05:00;11.50;99.90
65036;DHT22;51603;49.300;8.880;2023-04-24T01:07:26;11.50;99.90
65036;DHT22;51603;49.300;8.880;2023-04-24T01:09:52;11.50;99.90
65036;DHT22;51603;49.300;8.880;2023-04-24T01:12:19;11.50;99.90
65036;DHT22;51603;49.300;8.880;2023-04-24T01:14:45;11.50;99.90
65036;DHT22;51603;49.300;8.880;2023-04-24T01:17:10;11.50;99.90
65036;DHT22;51603;49.300;8.880;2023-04-24T01:19:36;11.50;99.90
65036;DHT22;51603;49.300;8.880;2023-04-24T01:22:03;11.40;99.90
65036;DHT22;51603;49.300;8.880;2023-04-24T01:24:29;11.40;99.90
65036;DHT22;51603;49.300;8.880;2023-04-24T01:26:55;11.40;99.90
65036;DHT22;51603;49.300;8.880;2023-04-24T01:29:20;11.40;99.90
65036;DHT22;51603;49.300;8.880;2023-04-24T01:31:46;11.40;99.90
65036;DHT22;51603;49.300;8.880;2023-04-24T01:34:12;11.40;99.90
65036;DHT22;51603;49.300;8.880;2023-04-24T01:36:39;11.30;99.90
65036;DHT22;51603;49.300;8.880;2023-04-24T01:39:06;11.40;99.90
65036;DHT22;51603;49.300;8.880;2023-04-24T01:41:32;11.30;99.90
65036;DHT22;51603;49.300;8.880;2023-04-24T01:43:58;11.40;99.90
65036;DHT22;51603;49.300;8.880;2023-04-24T01:46:24;11.40;99.90
65036;DHT22;51603;49.300;8.880;2023-04-24T01:48:51;11.30;99.90
65036;DHT22;51603;49.300;8.880;2023-04-24T01:51:17;11.30;99.90
65036;DHT22;51603;49.300;8.880;2023-04-24T01:53:42;11.30;99.90
65036;DHT22;51603;49.300;8.880;2023-04-24T01:56:08;11.30;99.90
65036;DHT22;51603;49.300;8.880;2023-04-24T01:58:34;11.30;99.90
65036;DHT22;51603;49.300;8.880;2023-04-24T02:01:00;11.30;99.90
65036;DHT22;51603;49.300;8.880;2023-04-24T02:03:26;11.30;99.90
65036;DHT22;51603;49.300;8.880;2023-04-24T02:05:52;11.40;99.90
65036;DHT22;51603;49.300;8.880;2023-04-24T02:08:17;11.40;99.90
65036;DHT22;51603;49.300;8.880;2023-04-24T02:10:43;11.40;99.90
65036;DHT22;51603;49.300;8.880;2023-04-24T02:13:09;11.40;99.90
65036;DHT22;51603;49.300;8.880;2023-04-24T02:15:35;11.40;99.90
65036;DHT22;51603;49.300;8.880;2023-04-24T02:18:01;11.30;99.90
65036;DHT22;51603;49.300;8.880;2023-04-24T02:20:27;11.40;99.90
65036;DHT22;51603;49.300;8.880;2023-04-24T02:22:52;11.40;99.90
65036;DHT22;51603;49.300;8.880;2023-04-24T02:25:18;11.40;99.90
65036;DHT22;51603;49.300;8.880;2023-04-24T02:27:43;11.40;99.90
65036;DHT22;51603;49.300;8.880;2023-04-24T02:30:09;11.40;99.90
65036;DHT22;51603;49.300;8.880;2023-04-24T02:32:35;11.40;99.90
65036;DHT22;51603;49.300;8.880;2023-04-24T02:35:01;11.40;99.90
65036;DHT22;51603;49.300;8.880;2023-04-24T02:37:26;11.40;99.90
65036;DHT22;51603;49.300;8.880;2023-04-24T02:39:52;11.30;99.90
65036;DHT22;51603;49.300;8.880;2023-04-24T02:42:17;11.30;99.90
65036;DHT22;51603;49.300;8.880;2023-04-24T02:44:43;11.20;99.90
65036;DHT22;51603;49.300;8.880;2023-04-24T02:47:08;11.20;99.90
65036;DHT22;51603;49.300;8.880;2023-04-24T02:49:34;11.20;99.90
65036;DHT22;51603;49.300;8.880;2023-04-24T02:52:00;11.10;99.90
65036;DHT22;51603;49.300;8.880;2023-04-24T02:54:25;11.10;99.90
65036;DHT22;51603;49.300;8.880;2023-04-24T02:56:51;11.10;99.90
65036;DHT22;51603;49.300;8.880;2023-04-24T02:59:16;11.10;99.90
65036;DHT22;51603;49.300;8.880;2023-04-24T03:01:42;11.10;99.90
65036;DHT22;51603;49.300;8.880;2023-04-24T03:04:07;11.10;99.90
65036;DHT22;51603;49.300;8.880;2023-04-24T03:06:33;11.10;99.90
65036;DHT22;51603;49.300;8.880;2023-04-24T03:09:00;11.10;99.90
65036;DHT22;51603;49.300;8.880;2023-04-24T03:11:26;11.10;99.90
65036;DHT22;51603;49.300;8.880;2023-04-24T03:13:52;11.00;99.90
65036;DHT22;51603;49.300;8.880;2023-04-24T03:16:17;11.00;99.90
65036;DHT22;51603;49.300;8.880;2023-04-24T03:18:43;11.00;99.90
65036;DHT22;51603;49.300;8.880;2023-04-24T03:21:08;11.00;99.90
65036;DHT22;51603;49.300;8.880;2023-04-24T03:23:34;11.00;99.90
65036;DHT22;51603;49.300;8.880;2023-04-24T03:25:59;11.00;99.90
65036;DHT22;51603;49.300;8.880;2023-04-24T03:28:25;11.00;99.90
65036;DHT22;51603;49.300;8.880;2023-04-24T03:30:51;11.00;99.90
65036;DHT22;51603;49.300;8.880;2023-04-24T03:33:17;10.90;99.90
65036;DHT22;51603;49.300;8.880;2023-04-24T03:35:42;10.90;99.90
65036;DHT22;51603;49.300;8.880;2023-04-24T03:38:08;10.80;99.90
65036;DHT22;51603;49.300;8.880;2023-04-24T03:40:34;10.70;99.90
65036;DHT22;51603;49.300;8.880;2023-04-24T03:42:59;10.70;99.90
65036;DHT22;51603;49.300;8.880;2023-04-24T03:45:25;10.50;99.90
65036;DHT22;51603;49.300;8.880;2023-04-24T03:47:50;10.30;99.90
65036;DHT22;51603;49.300;8.880;2023-04-24T03:50:16;10.10;99.90
65036;DHT22;51603;49.300;8.880;2023-04-24T03:52:42;10.00;99.90
65036;DHT22;51603;49.300;8.880;2023-04-24T03:55:07;9.90;99.90
65036;DHT22;51603;49.300;8.880;2023-04-24T03:57:33;9.90;99.90
65036;DHT22;51603;49.300;8.880;2023-04-24T03:59:58;9.80;99.90
65036;DHT22;51603;49.300;8.880;2023-04-24T04:02:25;9.80;99.90
65036;DHT22;51603;49.300;8.880;2023-04-24T04:04:50;9.80;99.90
65036;DHT22;51603;49.300;8.880;2023-04-24T04:07:16;9.80;99.90
65036;DHT22;51603;49.300;8.880;2023-04-24T04:09:41;9.70;99.90
65036;DHT22;51603;49.300;8.880;2023-04-24T04:12:07;9.70;99.90
65036;DHT22;51603;49.300;8.880;2023-04-24T04:14:32;9.60;99.90
65036;DHT22;51603;49.300;8.880;2023-04-24T04:16:58;9.60;99.90
65036;DHT22;51603;49.300;8.880;2023-04-24T04:19:23;9.60;99.90
65036;DHT22;51603;49.300;8.880;2023-04-24T04:21:49;9.60;99.90
65036;DHT22;51603;49.300;8.880;2023-04-24T04:24:19;9.50;99.90
65036;DHT22;51603;49.300;8.880;2023-04-24T04:26:46;9.50;99.90
65036;DHT22;51603;49.300;8.880;2023-04-24T04:29:13;9.50;99.90
65036;DHT22;51603;49.300;8.880;2023-04-24T04:31:38;9.40;99.90
65036;DHT22;51603;49.300;8.880;2023-04-24T04:34:04;9.40;99.90
65036;DHT22;51603;49.300;8.880;2023-04-24T04:36:29;9.40;99.90
65036;DHT22;51603;49.300;8.880;2023-04-24T04:38:55;9.30;99.90
65036;DHT22;51603;49.300;8.880;2023-04-24T04:41:22;9.30;99.90
65036;DHT22;51603;49.300;8.880;2023-04-24T04:43:47;9.20;99.90
65036;DHT22;51603;49.300;8.880;2023-04-24T04:46:13;9.20;99.90
65036;DHT22;51603;49.300;8.880;2023-04-24T04:48:38;9.20;99.90
65036;DHT22;51603;49.300;8.880;2023-04-24T04:51:04;9.10;99.90
65036;DHT22;51603;49.300;8.880;2023-04-24T04:53:30;9.10;99.90
65036;DHT22;51603;49.300;8.880;2023-04-24T04:55:56;9.10;99.90
65036;DHT22;51603;49.300;8.880;2023-04-24T04:58:22;9.00;99.90
65036;DHT22;51603;49.300;8.880;2023-04-24T05:00:47;9.00;99.90
65036;DHT22;51603;49.300;8.880;2023-04-24T05:03:13;8.90;99.90
65036;DHT22;51603;49.300;8.880;2023-04-24T05:05:39;8.90;99.90
65036;DHT22;51603;49.300;8.880;2023-04-24T05:08:09;8.80;99.90
65036;DHT22;51603;49.300;8.880;2023-04-24T05:10:34;8.80;99.90
65036;DHT22;51603;49.300;8.880;2023-04-24T05:13:02;8.80;99.90
65036;DHT22;51603;49.300;8.880;2023-04-24T05:15:28;8.80;99.90
65036;DHT22;51603;49.300;8.880;2023-04-24T05:17:53;8.80;99.90
65036;DHT22;51603;49.300;8.880;2023-04-24T05:20:19;8.80;99.90
65036;DHT22;51603;49.300;8.880;2023-04-24T05:22:44;8.80;99.90
65036;DHT22;51603;49.300;8.880;2023-04-24T05:25:10;8.70;99.90
65036;DHT22;51603;49.300;8.880;2023-04-24T05:27:37;8.70;99.90
65036;DHT22;51603;49.300;8.880;2023-04-24T05:30:04;8.80;99.90
65036;DHT22;51603;49.300;8.880;2023-04-24T05:32:30;8.80;99.90
65036;DHT22;51603;49.300;8.880;2023-04-24T05:34:55;8.90;99.90
65036;DHT22;51603;49.300;8.880;2023-04-24T05:37:21;8.90;99.90
65036;DHT22;51603;49.300;8.880;2023-04-24T05:39:46;8.90;99.90
65036;DHT22;51603;49.300;8.880;2023-04-24T05:42:12;9.00;99.90
65036;DHT22;51603;49.300;8.880;2023-04-24T05:44:37;9.00;99.90
65036;DHT22;51603;49.300;8.880;2023-04-24T05:47:03;9.10;99.90
65036;DHT22;51603;49.300;8.880;2023-04-24T05:49:28;9.10;99.90
65036;DHT22;51603;49.300;8.880;2023-04-24T05:51:54;9.20;99.90
65036;DHT22;51603;49.300;8.880;2023-04-24T05:54:20;9.20;99.90
65036;DHT22;51603;49.300;8.880;2023-04-24T05:56:45;9.30;99.90
65036;DHT22;51603;49.300;8.880;2023-04-24T05:59:11;9.30;99.90
65036;DHT22;51603;49.300;8.880;2023-04-24T06:01:37;9.50;99.90
65036;DHT22;51603;49.300;8.880;2023-04-24T06:04:03;9.50;99.90
65036;DHT22;51603;49.300;8.880;2023-04-24T06:06:29;9.60;99.90
65036;DHT22;51603;49.300;8.880;2023-04-24T06:08:55;9.70;99.90
65036;DHT22;51603;49.300;8.880;2023-04-24T06:11:22;9.80;99.90
65036;DHT22;51603;49.300;8.880;2023-04-24T06:13:48;9.80;99.90
65036;DHT22;51603;49.300;8.880;2023-04-24T06:16:13;9.80;99.90
65036;DHT22;51603;49.300;8.880;2023-04-24T06:18:39;9.90;99.90
65036;DHT22;51603;49.300;8.880;2023-04-24T06:21:04;10.00;99.90
65036;DHT22;51603;49.300;8.880;2023-04-24T06:23:30;10.10;99.90
65036;DHT22;51603;49.300;8.880;2023-04-24T06:25:58;10.20;99.90
65036;DHT22;51603;49.300;8.880;2023-04-24T06:28:24;10.30;99.90
65036;DHT22;51603;49.300;8.880;2023-04-24T06:30:49;10.20;99.90
65036;DHT22;51603;49.300;8.880;2023-04-24T06:33:16;10.10;99.90
65036;DHT22;51603;49.300;8.880;2023-04-24T06:35:42;10.10;99.90
65036;DHT22;51603;49.300;8.880;2023-04-24T06:38:07;10.00;99.90
65036;DHT22;51603;49.300;8.880;2023-04-24T06:40:33;10.00;99.90
65036;DHT22;51603;49.300;8.880;2023-04-24T06:42:59;10.00;99.90
65036;DHT22;51603;49.300;8.880;2023-04-24T06:45:25;10.00;99.90
65036;DHT22;51603;49.300;8.880;2023-04-24T06:47:51;10.00;99.90
65036;DHT22;51603;49.300;8.880;2023-04-24T06:50:16;10.00;99.90
65036;DHT22;51603;49.300;8.880;2023-04-24T06:52:42;9.90;99.90
65036;DHT22;51603;49.300;8.880;2023-04-24T06:55:08;9.90;99.90
65036;DHT22;51603;49.300;8.880;2023-04-24T06:57:33;9.90;99.90
65036;DHT22;51603;49.300;8.880;2023-04-24T06:59:59;9.80;99.90
65036;DHT22;51603;49.300;8.880;2023-04-24T07:02:25;9.90;99.90
65036;DHT22;51603;49.300;8.880;2023-04-24T07:04:50;9.90;99.90
65036;DHT22;51603;49.300;8.880;2023-04-24T07:07:16;9.90;99.90
65036;DHT22;51603;49.300;8.880;2023-04-24T07:09:42;9.90;99.90
65036;DHT22;51603;49.300;8.880;2023-04-24T07:12:08;9.90;99.90
65036;DHT22;51603;49.300;8.880;2023-04-24T07:14:36;10.00;99.90
65036;DHT22;51603;49.300;8.880;2023-04-24T07:17:03;10.00;99.90
65036;DHT22;51603;49.300;8.880;2023-04-24T07:19:29;10.10;99.90
65036;DHT22;51603;49.300;8.880;2023-04-24T07:21:54;10.10;99.90
65036;DHT22;51603;49.300;8.880;2023-04-24T07:24:20;10.10;99.90
65036;DHT22;51603;49.300;8.880;2023-04-24T07:26:46;10.10;99.90
65036;DHT22;51603;49.300;8.880;2023-04-24T07:29:12;10.10;99.90
65036;DHT22;51603;49.300;8.880;2023-04-24T07:31:38;10.10;99.90
65036;DHT22;51603;49.300;8.880;2023-04-24T07:34:04;10.10;99.90
65036;DHT22;51603;49.300;8.880;2023-04-24T07:36:29;10.20;99.90
65036;DHT22;51603;49.300;8.880;2023-04-24T07:38:55;10.20;99.90
65036;DHT22;51603;49.300;8.880;2023-04-24T07:41:22;10.20;99.90
65036;DHT22;51603;49.300;8.880;2023-04-24T07:43:48;10.10;99.90
65036;DHT22;51603;49.300;8.880;2023-04-24T07:46:13;10.00;99.90
65036;DHT22;51603;49.300;8.880;2023-04-24T07:48:39;9.70;99.90
65036;DHT22;51603;49.300;8.880;2023-04-24T07:51:04;9.60;99.90
65036;DHT22;51603;49.300;8.880;2023-04-24T07:53:30;9.30;99.90
65036;DHT22;51603;49.300;8.880;2023-04-24T07:55:56;9.20;99.90
65036;DHT22;51603;49.300;8.880;2023-04-24T07:58:22;9.10;99.90
65036;DHT22;51603;49.300;8.880;2023-04-24T08:00:47;9.00;99.90
65036;DHT22;51603;49.300;8.880;2023-04-24T08:03:14;9.00;99.90
65036;DHT22;51603;49.300;8.880;2023-04-24T08:05:40;9.00;99.90
65036;DHT22;51603;49.300;8.880;2023-04-24T08:08:07;9.00;99.90
65036;DHT22;51603;49.300;8.880;2023-04-24T08:10:32;9.00;99.90
65036;DHT22;51603;49.300;8.880;2023-04-24T08:12:58;9.10;99.90
65036;DHT22;51603;49.300;8.880;2023-04-24T08:15:23;9.20;99.90
65036;DHT22;51603;49.300;8.880;2023-04-24T08:17:50;9.20;99.90
65036;DHT22;51603;49.300;8.880;2023-04-24T08:20:15;9.30;99.90
65036;DHT22;51603;49.300;8.880;2023-04-24T08:22:42;9.50;99.90
65036;DHT22;51603;49.300;8.880;2023-04-24T08:25:09;9.70;99.90
65036;DHT22;51603;49.300;8.880;2023-04-24T08:27:35;9.90;99.90
65036;DHT22;51603;49.300;8.880;2023-04-24T08:30:03;10.00;99.90
65036;DHT22;51603;49.300;8.880;2023-04-24T08:32:28;9.90;99.90
65036;DHT22;51603;49.300;8.880;2023-04-24T08:34:55;10.00;99.90
65036;DHT22;51603;49.300;8.880;2023-04-24T08:37:22;10.20;99.90
65036;DHT22;51603;49.300;8.880;2023-04-24T08:39:48;10.50;99.90
65036;DHT22;51603;49.300;8.880;2023-04-24T08:42:14;10.70;99.90
65036;DHT22;51603;49.300;8.880;2023-04-24T08:44:40;10.80;99.90
65036;DHT22;51603;49.300;8.880;2023-04-24T08:47:07;11.00;99.90
65036;DHT22;51603;49.300;8.880;2023-04-24T08:49:33;11.00;99.90
65036;DHT22;51603;49.300;8.880;2023-04-24T08:52:01;11.10;99.90
65036;DHT22;51603;49.300;8.880;2023-04-24T08:54:28;11.10;99.90
65036;DHT22;51603;49.300;8.880;2023-04-24T08:57:00;11.20;99.90
65036;DHT22;51603;49.300;8.880;2023-04-24T08:59:27;11.20;99.90
65036;DHT22;51603;49.300;8.880;2023-04-24T09:01:53;11.10;99.90
65036;DHT22;51603;49.300;8.880;2023-04-24T09:04:20;11.00;99.90
65036;DHT22;51603;49.300;8.880;2023-04-24T09:06:48;10.80;99.90
65036;DHT22;51603;49.300;8.880;2023-04-24T09:09:16;10.80;99.90
65036;DHT22;51603;49.300;8.880;2023-04-24T09:11:42;10.80;99.90
65036;DHT22;51603;49.300;8.880;2023-04-24T09:14:09;11.00;99.90
65036;DHT22;51603;49.300;8.880;2023-04-24T09:16:36;11.20;99.90
65036;DHT22;51603;49.300;8.880;2023-04-24T09:19:01;11.40;99.90
65036;DHT22;51603;49.300;8.880;2023-04-24T09:21:32;11.50;99.90
65036;DHT22;51603;49.300;8.880;2023-04-24T09:24:03;11.40;99.90
65036;DHT22;51603;49.300;8.880;2023-04-24T09:26:30;11.40;99.90
65036;DHT22;51603;49.300;8.880;2023-04-24T09:28:57;11.30;99.90
65036;DHT22;51603;49.300;8.880;2023-04-24T09:31:22;11.30;99.90
65036;DHT22;51603;49.300;8.880;2023-04-24T09:34:00;11.20;99.90
65036;DHT22;51603;49.300;8.880;2023-04-24T09:36:40;11.10;99.90
65036;DHT22;51603;49.300;8.880;2023-04-24T09:39:08;11.00;99.90
65036;DHT22;51603;49.300;8.880;2023-04-24T09:41:44;10.90;99.90
65036;DHT22;51603;49.300;8.880;2023-04-24T09:44:18;11.00;99.90
65036;DHT22;51603;49.300;8.880;2023-04-24T09:46:50;10.90;99.90
65036;DHT22;51603;49.300;8.880;2023-04-24T09:49:22;10.90;99.90
65036;DHT22;51603;49.300;8.880;2023-04-24T09:51:48;10.90;99.90
65036;DHT22;51603;49.300;8.880;2023-04-24T09:54:18;10.90;99.90
65036;DHT22;51603;49.300;8.880;2023-04-24T09:56:46;10.90;99.90
65036;DHT22;51603;49.300;8.880;2023-04-24T09:59:13;11.00;99.90
65036;DHT22;51603;49.300;8.880;2023-04-24T10:01:39;11.10;99.90
65036;DHT22;51603;49.300;8.880;2023-04-24T10:04:16;11.20;99.90
65036;DHT22;51603;49.300;8.880;2023-04-24T10:06:43;11.40;99.90
65036;DHT22;51603;49.300;8.880;2023-04-24T10:09:08;11.50;99.90
65036;DHT22;51603;49.300;8.880;2023-04-24T10:11:37;11.70;99.90
65036;DHT22;51603;49.300;8.880;2023-04-24T10:14:03;12.00;99.90
65036;DHT22;51603;49.300;8.880;2023-04-24T10:16:29;12.10;99.90
65036;DHT22;51603;49.300;8.880;2023-04-24T10:18:59;12.10;99.90
65036;DHT22;51603;49.300;8.880;2023-04-24T10:21:25;12.20;99.90
65036;DHT22;51603;49.300;8.880;2023-04-24T10:23:52;12.30;99.90
65036;DHT22;51603;49.300;8.880;2023-04-24T10:26:19;12.20;99.90
65036;DHT22;51603;49.300;8.880;2023-04-24T10:28:46;12.00;99.90
65036;DHT22;51603;49.300;8.880;2023-04-24T10:31:13;12.00;99.90
65036;DHT22;51603;49.300;8.880;2023-04-24T10:33:41;11.90;99.90
65036;DHT22;51603;49.300;8.880;2023-04-24T10:36:09;11.80;99.90
65036;DHT22;51603;49.300;8.880;2023-04-24T10:38:35;11.60;99.90
65036;DHT22;51603;49.300;8.880;2023-04-24T10:41:12;11.50;99.90
65036;DHT22;51603;49.300;8.880;2023-04-24T10:43:42;11.40;99.90
65036;DHT22;51603;49.300;8.880;2023-04-24T10:46:09;11.20;99.90
65036;DHT22;51603;49.300;8.880;2023-04-24T10:48:36;11.10;99.90
65036;DHT22;51603;49.300;8.880;2023-04-24T10:51:11;11.00;99.90
65036;DHT22;51603;49.300;8.880;2023-04-24T10:53:37;10.80;99.90
65036;DHT22;51603;49.300;8.880;2023-04-24T10:56:04;10.70;99.90
65036;DHT22;51603;49.300;8.880;2023-04-24T11:01:26;10.00;99.90
65036;DHT22;51603;49.300;8.880;2023-04-24T11:03:57;9.70;99.90
65036;DHT22;51603;49.300;8.880;2023-04-24T11:06:30;9.60;99.90
65036;DHT22;51603;49.300;8.880;2023-04-24T11:09:10;9.50;99.90
65036;DHT22;51603;49.300;8.880;2023-04-24T11:11:42;9.60;99.90
65036;DHT22;51603;49.300;8.880;2023-04-24T11:14:09;9.70;99.90
65036;DHT22;51603;49.300;8.880;2023-04-24T11:16:42;9.90;99.90
65036;DHT22;51603;49.300;8.880;2023-04-24T11:19:24;10.10;99.90
65036;DHT22;51603;49.300;8.880;2023-04-24T11:22:00;10.50;99.90
65036;DHT22;51603;49.300;8.880;2023-04-24T11:24:29;10.80;99.90
65036;DHT22;51603;49.300;8.880;2023-04-24T11:27:00;11.00;99.90
65036;DHT22;51603;49.300;8.880;2023-04-24T11:29:43;11.30;99.90
65036;DHT22;51603;49.300;8.880;2023-04-24T11:35:02;11.30;99.90
65036;DHT22;51603;49.300;8.880;2023-04-24T11:37:37;11.30;99.90
65036;DHT22;51603;49.300;8.880;2023-04-24T11:40:04;11.20;99.90
65036;DHT22;51603;49.300;8.880;2023-04-24T11:42:37;11.20;99.90
65036;DHT22;51603;49.300;8.880;2023-04-24T11:45:15;11.10;99.90
65036;DHT22;51603;49.300;8.880;2023-04-24T11:47:42;11.10;99.90
65036;DHT22;51603;49.300;8.880;2023-04-24T11:50:20;11.00;99.90
65036;DHT22;51603;49.300;8.880;2023-04-24T11:52:48;10.90;99.90
65036;DHT22;51603;49.300;8.880;2023-04-24T11:57:45;10.80;99.90
65036;DHT22;51603;49.300;8.880;2023-04-24T12:00:26;10.70;99.90
65036;DHT22;51603;49.300;8.880;2023-04-24T12:03:02;10.70;99.90
65036;DHT22;51603;49.300;8.880;2023-04-24T12:05:29;10.80;99.90
65036;DHT22;51603;49.300;8.880;2023-04-24T12:07:56;11.20;99.90
65036;DHT22;51603;49.300;8.880;2023-04-24T12:10:26;11.40;99.90
65036;DHT22;51603;49.300;8.880;2023-04-24T12:12:56;11.40;99.90
65036;DHT22;51603;49.300;8.880;2023-04-24T12:15:22;11.50;99.90
65036;DHT22;51603;49.300;8.880;2023-04-24T12:17:48;11.50;99.90
65036;DHT22;51603;49.300;8.880;2023-04-24T12:20:15;11.40;99.90
65036;DHT22;51603;49.300;8.880;2023-04-24T12:22:53;11.30;99.90
65036;DHT22;51603;49.300;8.880;2023-04-24T12:25:24;11.20;99.90
65036;DHT22;51603;49.300;8.880;2023-04-24T12:30:19;11.10;99.90
65036;DHT22;51603;49.300;8.880;2023-04-24T12:32:49;11.20;99.90
65036;DHT22;51603;49.300;8.880;2023-04-24T12:35:23;11.30;99.90
65036;DHT22;51603;49.300;8.880;2023-04-24T12:37:49;11.40;99.90
65036;DHT22;51603;49.300;8.880;2023-04-24T12:40:16;11.40;99.90
65036;DHT22;51603;49.300;8.880;2023-04-24T12:42:51;11.50;99.90
65036;DHT22;51603;49.300;8.880;2023-04-24T12:45:18;11.50;99.90
65036;DHT22;51603;49.300;8.880;2023-04-24T12:47:45;11.60;99.90
65036;DHT22;51603;49.300;8.880;2023-04-24T12:50:12;11.70;99.90
65036;DHT22;51603;49.300;8.880;2023-04-24T12:52:39;11.70;99.90
65036;DHT22;51603;49.300;8.880;2023-04-24T12:55:06;11.70;99.90
65036;DHT22;51603;49.300;8.880;2023-04-24T12:57:34;11.70;99.90
65036;DHT22;51603;49.300;8.880;2023-04-24T13:00:00;11.80;99.90
65036;DHT22;51603;49.300;8.880;2023-04-24T13:02:28;11.90;99.90
65036;DHT22;51603;49.300;8.880;2023-04-24T13:04:58;11.80;99.90
65036;DHT22;51603;49.300;8.880;2023-04-24T13:07:24;11.90;99.90
65036;DHT22;51603;49.300;8.880;2023-04-24T13:09:50;11.90;99.90
65036;DHT22;51603;49.300;8.880;2023-04-24T13:12:16;11.90;99.90
65036;DHT22;51603;49.300;8.880;2023-04-24T13:14:42;11.80;99.90
65036;DHT22;51603;49.300;8.880;2023-04-24T13:17:08;11.90;99.90
65036;DHT22;51603;49.300;8.880;2023-04-24T13:19:39;11.80;99.90
65036;DHT22;51603;49.300;8.880;2023-04-24T13:22:05;11.80;99.90
65036;DHT22;51603;49.300;8.880;2023-04-24T13:24:31;11.90;99.70
65036;DHT22;51603;49.300;8.880;2023-04-24T13:26:57;12.00;99.90
65036;DHT22;51603;49.300;8.880;2023-04-24T13:29:23;12.10;99.60
65036;DHT22;51603;49.300;8.880;2023-04-24T13:31:52;12.20;99.90
65036;DHT22;51603;49.300;8.880;2023-04-24T13:34:20;12.20;99.50
65036;DHT22;51603;49.300;8.880;2023-04-24T13:36:46;12.40;98.90
65036;DHT22;51603;49.300;8.880;2023-04-24T13:39:12;12.40;98.70
65036;DHT22;51603;49.300;8.880;2023-04-24T13:41:38;12.60;97.90
65036;DHT22;51603;49.300;8.880;2023-04-24T13:44:04;12.80;98.30
65036;DHT22;51603;49.300;8.880;2023-04-24T13:46:30;12.90;96.80
65036;DHT22;51603;49.300;8.880;2023-04-24T13:48:56;12.90;96.70
65036;DHT22;51603;49.300;8.880;2023-04-24T13:51:23;13.10;97.10
65036;DHT22;51603;49.300;8.880;2023-04-24T13:53:48;13.10;97.20
65036;DHT22;51603;49.300;8.880;2023-04-24T13:56:14;13.00;96.50
65036;DHT22;51603;49.300;8.880;2023-04-24T13:58:40;12.90;97.30
65036;DHT22;51603;49.300;8.880;2023-04-24T14:01:05;12.70;96.20
65036;DHT22;51603;49.300;8.880;2023-04-24T14:03:32;12.70;95.80
65036;DHT22;51603;49.300;8.880;2023-04-24T14:05:58;12.70;97.00
65036;DHT22;51603;49.300;8.880;2023-04-24T14:08:23;12.70;96.20
65036;DHT22;51603;49.300;8.880;2023-04-24T14:10:49;12.80;96.80
65036;DHT22;51603;49.300;8.880;2023-04-24T14:13:16;12.90;95.50
65036;DHT22;51603;49.300;8.880;2023-04-24T14:15:41;12.90;95.20
65036;DHT22;51603;49.300;8.880;2023-04-24T14:18:07;12.80;96.20
65036;DHT22;51603;49.300;8.880;2023-04-24T14:20:33;12.60;95.60
65036;DHT22;51603;49.300;8.880;2023-04-24T14:22:58;12.70;96.20
65036;DHT22;51603;49.300;8.880;2023-04-24T14:25:24;12.70;95.60
65036;DHT22;51603;49.300;8.880;2023-04-24T14:27:50;12.60;95.80
65036;DHT22;51603;49.300;8.880;2023-04-24T14:30:16;12.60;96.40
65036;DHT22;51603;49.300;8.880;2023-04-24T14:32:41;12.60;95.90
65036;DHT22;51603;49.300;8.880;2023-04-24T14:35:07;12.50;97.50
65036;DHT22;51603;49.300;8.880;2023-04-24T14:37:33;12.70;97.00
65036;DHT22;51603;49.300;8.880;2023-04-24T14:39:59;12.70;97.20
65036;DHT22;51603;49.300;8.880;2023-04-24T14:42:24;12.70;97.50
65036;DHT22;51603;49.300;8.880;2023-04-24T14:44:50;12.60;97.80
65036;DHT22;51603;49.300;8.880;2023-04-24T14:47:16;12.40;97.40
65036;DHT22;51603;49.300;8.880;2023-04-24T14:49:43;12.50;97.60
65036;DHT22;51603;49.300;8.880;2023-04-24T14:52:09;12.50;97.80
65036;DHT22;51603;49.300;8.880;2023-04-24T14:54:35;12.60;97.90
65036;DHT22;51603;49.300;8.880;2023-04-24T14:57:01;12.80;97.90
65036;DHT22;51603;49.300;8.880;2023-04-24T14:59:27;13.10;96.60
65036;DHT22;51603;49.300;8.880;2023-04-24T15:01:53;13.10;96.00
65036;DHT22;51603;49.300;8.880;2023-04-24T15:04:25;13.10;96.30
65036;DHT22;51603;49.300;8.880;2023-04-24T15:06:51;12.90;95.00
65036;DHT22;51603;49.300;8.880;2023-04-24T15:09:19;12.80;94.80
65036;DHT22;51603;49.300;8.880;2023-04-24T15:11:44;12.60;95.50
65036;DHT22;51603;49.300;8.880;2023-04-24T15:14:10;12.50;96.70
65036;DHT22;51603;49.300;8.880;2023-04-24T15:16:36;12.30;96.30
65036;DHT22;51603;49.300;8.880;2023-04-24T15:19:01;12.30;96.10
65036;DHT22;51603;49.300;8.880;2023-04-24T15:21:27;12.20;96.90
65036;DHT22;51603;49.300;8.880;2023-04-24T15:23:52;12.20;97.60
65036;DHT22;51603;49.300;8.880;2023-04-24T15:26:18;12.10;97.70
65036;DHT22;51603;49.300;8.880;2023-04-24T15:28:44;12.30;98.70
65036;DHT22;51603;49.300;8.880;2023-04-24T15:31:12;12.40;98.30
65036;DHT22;51603;49.300;8.880;2023-04-24T15:33:37;12.70;98.90
65036;DHT22;51603;49.300;8.880;2023-04-24T15:36:03;12.70;97.30
65036;DHT22;51603;49.300;8.880;2023-04-24T15:38:29;12.60;97.40
65036;DHT22;51603;49.300;8.880;2023-04-24T15:40:54;12.60;97.50
65036;DHT22;51603;49.300;8.880;2023-04-24T15:43:20;12.60;97.70